sensor_id;sensor_type;location;lat;lon;timestamp;P1;durP1;ratioP1;P2;durP2;ratioP2
22774;SDS011;11554;51.106;3.684;2023-05-29T00:00:00;17.80;;;7.20;;
22774;SDS011;11554;51.106;3.684;2023-05-29T00:05:00;17.80;;;7.20;;
22774;SDS011;11554;51.106;3.684;2023-05-29T00:10:00;14.80;;;6.10;;
22774;SDS011;11554;51.106;3.684;2023-05-29T00:15:00;14.80;;;6.10;;
22774;SDS011;11554;51.106;3.684;2023-05-29T00:20:00;14.50;;;6.20;;
22774;SDS011;11554;51.106;3.684;2023-05-29T00:25:00;14.50;;;6.20;;
22774;SDS011;11554;51.106;3.684;2023-05-29T00:30:00;14.00;;;6.40;;
22774;SDS011;11554;51.106;3.684;2023-05-29T00:35:00;14.00;;;6.40;;
22774;SDS011;11554;51.106;3.684;2023-05-29T00:40:00;13.80;;;5.90;;
22774;SDS011;11554;51.106;3.684;2023-05-29T00:45:00;13.80;;;5.90;;
22774;SDS011;11554;51.106;3.684;2023-05-29T00:50:01;16.10;;;5.80;;
22774;SDS011;11554;51.106;3.684;2023-05-29T00:55:00;16.10;;;5.80;;
22774;SDS011;11554;51.106;3.684;2023-05-29T01:00:01;16.20;;;5.30;;
22774;SDS011;11554;51.106;3.684;2023-05-29T01:05:00;16.20;;;5.30;;
22774;SDS011;11554;51.106;3.684;2023-05-29T01:10:00;16.40;;;5.50;;
22774;SDS011;11554;51.106;3.684;2023-05-29T01:15:08;16.40;;;5.50;;
22774;SDS011;11554;51.106;3.684;2023-05-29T01:20:09;17.90;;;4.70;;
22774;SDS011;11554;51.106;3.684;2023-05-29T01:25:11;17.90;;;4.70;;
22774;SDS011;11554;51.106;3.684;2023-05-29T01:30:01;15.00;;;3.80;;
22774;SDS011;11554;51.106;3.684;2023-05-29T01:35:00;15.00;;;3.80;;
22774;SDS011;11554;51.106;3.684;2023-05-29T01:40:00;17.00;;;3.40;;
22774;SDS011;11554;51.106;3.684;2023-05-29T01:45:01;17.00;;;3.40;;
22774;SDS011;11554;51.106;3.684;2023-05-29T01:50:00;12.60;;;3.40;;
22774;SDS011;11554;51.106;3.684;2023-05-29T01:55:00;12.60;;;3.40;;
22774;SDS011;11554;51.106;3.684;2023-05-29T02:00:00;10.60;;;3.10;;
22774;SDS011;11554;51.106;3.684;2023-05-29T02:05:00;10.60;;;3.10;;
22774;SDS011;11554;51.106;3.684;2023-05-29T02:10:00;15.70;;;3.00;;
22774;SDS011;11554;51.106;3.684;2023-05-29T02:15:00;15.70;;;3.00;;
22774;SDS011;11554;51.106;3.684;2023-05-29T02:20:00;14.60;;;3.40;;
22774;SDS011;11554;51.106;3.684;2023-05-29T02:25:00;14.60;;;3.40;;
22774;SDS011;11554;51.106;3.684;2023-05-29T02:30:00;13.00;;;3.20;;
22774;SDS011;11554;51.106;3.684;2023-05-29T02:35:00;13.00;;;3.20;;
22774;SDS011;11554;51.106;3.684;2023-05-29T02:40:00;14.00;;;2.90;;
22774;SDS011;11554;51.106;3.684;2023-05-29T02:45:00;14.00;;;2.90;;
22774;SDS011;11554;51.106;3.684;2023-05-29T02:50:00;11.20;;;3.10;;
22774;SDS011;11554;51.106;3.684;2023-05-29T02:55:00;11.20;;;3.10;;
22774;SDS011;11554;51.106;3.684;2023-05-29T03:00:01;13.20;;;3.50;;
22774;SDS011;11554;51.106;3.684;2023-05-29T03:05:00;13.20;;;3.50;;
22774;SDS011;11554;51.106;3.684;2023-05-29T03:10:00;15.90;;;3.50;;
22774;SDS011;11554;51.106;3.684;2023-05-29T03:15:00;15.90;;;3.50;;
22774;SDS011;11554;51.106;3.684;2023-05-29T03:20:00;13.60;;;3.20;;
22774;SDS011;11554;51.106;3.684;2023-05-29T03:25:00;13.60;;;3.20;;
22774;SDS011;11554;51.106;3.684;2023-05-29T03:30:00;15.70;;;2.90;;
22774;SDS011;11554;51.106;3.684;2023-05-29T03:35:00;15.70;;;2.90;;
22774;SDS011;11554;51.106;3.684;2023-05-29T03:40:00;14.20;;;3.10;;
22774;SDS011;11554;51.106;3.684;2023-05-29T03:45:00;14.20;;;3.10;;
22774;SDS011;11554;51.106;3.684;2023-05-29T03:50:00;15.10;;;3.20;;
22774;SDS011;11554;51.106;3.684;2023-05-29T03:55:00;15.10;;;3.20;;
22774;SDS011;11554;51.106;3.684;2023-05-29T04:00:00;15.20;;;2.80;;
22774;SDS011;11554;51.106;3.684;2023-05-29T04:05:00;15.20;;;2.80;;
22774;SDS011;11554;51.106;3.684;2023-05-29T04:10:00;16.40;;;3.20;;
22774;SDS011;11554;51.106;3.684;2023-05-29T04:15:00;16.40;;;3.20;;
22774;SDS011;11554;51.106;3.684;2023-05-29T04:20:00;18.30;;;3.10;;
22774;SDS011;11554;51.106;3.684;2023-05-29T04:25:00;18.30;;;3.10;;
22774;SDS011;11554;51.106;3.684;2023-05-29T04:30:00;14.80;;;2.80;;
22774;SDS011;11554;51.106;3.684;2023-05-29T04:35:00;14.80;;;2.80;;
22774;SDS011;11554;51.106;3.684;2023-05-29T04:40:00;18.10;;;3.10;;
22774;SDS011;11554;51.106;3.684;2023-05-29T04:45:00;18.10;;;3.10;;
22774;SDS011;11554;51.106;3.684;2023-05-29T04:50:00;16.40;;;2.70;;
22774;SDS011;11554;51.106;3.684;2023-05-29T04:55:00;16.40;;;2.70;;
22774;SDS011;11554;51.106;3.684;2023-05-29T05:00:00;13.30;;;2.90;;
22774;SDS011;11554;51.106;3.684;2023-05-29T05:05:00;13.30;;;2.90;;
22774;SDS011;11554;51.106;3.684;2023-05-29T05:10:00;13.70;;;2.90;;
22774;SDS011;11554;51.106;3.684;2023-05-29T05:15:00;13.70;;;2.90;;
22774;SDS011;11554;51.106;3.684;2023-05-29T05:20:00;14.30;;;2.90;;
22774;SDS011;11554;51.106;3.684;2023-05-29T05:25:00;14.30;;;2.90;;
22774;SDS011;11554;51.106;3.684;2023-05-29T05:30:00;18.10;;;3.30;;
22774;SDS011;11554;51.106;3.684;2023-05-29T05:35:00;18.10;;;3.30;;
22774;SDS011;11554;51.106;3.684;2023-05-29T05:40:00;13.30;;;2.90;;
22774;SDS011;11554;51.106;3.684;2023-05-29T05:45:00;13.30;;;2.90;;
22774;SDS011;11554;51.106;3.684;2023-05-29T05:50:00;20.40;;;3.30;;
22774;SDS011;11554;51.106;3.684;2023-05-29T05:55:00;20.40;;;3.30;;
22774;SDS011;11554;51.106;3.684;2023-05-29T06:00:00;15.20;;;3.10;;
22774;SDS011;11554;51.106;3.684;2023-05-29T06:05:00;15.20;;;3.10;;
22774;SDS011;11554;51.106;3.684;2023-05-29T06:10:00;16.70;;;3.00;;
22774;SDS011;11554;51.106;3.684;2023-05-29T06:15:00;16.70;;;3.00;;
22774;SDS011;11554;51.106;3.684;2023-05-29T06:20:00;12.00;;;2.80;;
22774;SDS011;11554;51.106;3.684;2023-05-29T06:25:00;12.00;;;2.80;;
22774;SDS011;11554;51.106;3.684;2023-05-29T06:30:00;12.70;;;2.90;;
22774;SDS011;11554;51.106;3.684;2023-05-29T06:35:00;12.70;;;2.90;;
22774;SDS011;11554;51.106;3.684;2023-05-29T06:40:00;13.70;;;3.10;;
22774;SDS011;11554;51.106;3.684;2023-05-29T06:45:00;13.70;;;3.10;;
22774;SDS011;11554;51.106;3.684;2023-05-29T06:50:00;14.30;;;2.70;;
22774;SDS011;11554;51.106;3.684;2023-05-29T06:55:00;14.30;;;2.70;;
22774;SDS011;11554;51.106;3.684;2023-05-29T07:00:00;11.80;;;2.50;;
22774;SDS011;11554;51.106;3.684;2023-05-29T07:05:00;11.80;;;2.50;;
22774;SDS011;11554;51.106;3.684;2023-05-29T07:10:00;14.90;;;2.90;;
22774;SDS011;11554;51.106;3.684;2023-05-29T07:15:00;14.90;;;2.90;;
22774;SDS011;11554;51.106;3.684;2023-05-29T07:20:00;10.90;;;2.80;;
22774;SDS011;11554;51.106;3.684;2023-05-29T07:25:00;10.90;;;2.80;;
22774;SDS011;11554;51.106;3.684;2023-05-29T07:30:00;13.60;;;2.90;;
22774;SDS011;11554;51.106;3.684;2023-05-29T07:35:00;13.60;;;2.90;;
22774;SDS011;11554;51.106;3.684;2023-05-29T07:40:00;9.90;;;2.50;;
22774;SDS011;11554;51.106;3.684;2023-05-29T07:45:00;9.90;;;2.50;;
22774;SDS011;11554;51.106;3.684;2023-05-29T07:50:00;11.90;;;2.90;;
22774;SDS011;11554;51.106;3.684;2023-05-29T07:55:00;11.90;;;2.90;;
22774;SDS011;11554;51.106;3.684;2023-05-29T08:00:00;12.70;;;2.80;;
22774;SDS011;11554;51.106;3.684;2023-05-29T08:05:00;12.70;;;2.80;;
22774;SDS011;11554;51.106;3.684;2023-05-29T08:10:00;11.30;;;2.70;;
22774;SDS011;11554;51.106;3.684;2023-05-29T08:15:00;11.30;;;2.70;;
22774;SDS011;11554;51.106;3.684;2023-05-29T08:20:00;15.50;;;2.50;;
22774;SDS011;11554;51.106;3.684;2023-05-29T08:25:00;15.50;;;2.50;;
22774;SDS011;11554;51.106;3.684;2023-05-29T08:30:00;13.60;;;3.10;;
22774;SDS011;11554;51.106;3.684;2023-05-29T08:35:00;13.60;;;3.10;;
22774;SDS011;11554;51.106;3.684;2023-05-29T08:40:00;16.00;;;2.80;;
22774;SDS011;11554;51.106;3.684;2023-05-29T08:45:02;16.00;;;2.80;;
22774;SDS011;11554;51.106;3.684;2023-05-29T08:50:01;13.90;;;2.80;;
22774;SDS011;11554;51.106;3.684;2023-05-29T08:55:00;13.90;;;2.80;;
22774;SDS011;11554;51.106;3.684;2023-05-29T09:00:00;10.90;;;2.60;;
22774;SDS011;11554;51.106;3.684;2023-05-29T09:05:00;10.90;;;2.60;;
22774;SDS011;11554;51.106;3.684;2023-05-29T09:10:00;11.30;;;2.70;;
22774;SDS011;11554;51.106;3.684;2023-05-29T09:15:00;11.30;;;2.70;;
22774;SDS011;11554;51.106;3.684;2023-05-29T09:20:00;13.80;;;3.10;;
22774;SDS011;11554;51.106;3.684;2023-05-29T09:25:00;13.80;;;3.10;;
22774;SDS011;11554;51.106;3.684;2023-05-29T09:30:00;10.30;;;2.80;;
22774;SDS011;11554;51.106;3.684;2023-05-29T09:35:00;10.30;;;2.80;;
22774;SDS011;11554;51.106;3.684;2023-05-29T09:40:00;11.00;;;3.00;;
22774;SDS011;11554;51.106;3.684;2023-05-29T09:45:00;11.00;;;3.00;;
22774;SDS011;11554;51.106;3.684;2023-05-29T09:50:00;14.60;;;3.00;;
22774;SDS011;11554;51.106;3.684;2023-05-29T09:55:00;14.60;;;3.00;;
22774;SDS011;11554;51.106;3.684;2023-05-29T10:00:01;8.50;;;2.30;;
22774;SDS011;11554;51.106;3.684;2023-05-29T10:05:00;8.50;;;2.30;;
22774;SDS011;11554;51.106;3.684;2023-05-29T10:10:02;9.90;;;2.40;;
22774;SDS011;11554;51.106;3.684;2023-05-29T10:15:01;9.90;;;2.40;;
22774;SDS011;11554;51.106;3.684;2023-05-29T10:20:01;12.80;;;3.10;;
22774;SDS011;11554;51.106;3.684;2023-05-29T10:25:01;12.80;;;3.10;;
22774;SDS011;11554;51.106;3.684;2023-05-29T10:30:06;10.70;;;3.10;;
22774;SDS011;11554;51.106;3.684;2023-05-29T10:35:07;10.70;;;3.10;;
22774;SDS011;11554;51.106;3.684;2023-05-29T10:40:04;10.50;;;2.50;;
22774;SDS011;11554;51.106;3.684;2023-05-29T10:45:00;10.50;;;2.50;;
22774;SDS011;11554;51.106;3.684;2023-05-29T10:50:01;10.30;;;2.70;;
22774;SDS011;11554;51.106;3.684;2023-05-29T10:55:00;10.30;;;2.70;;
22774;SDS011;11554;51.106;3.684;2023-05-29T11:00:05;9.50;;;2.60;;
22774;SDS011;11554;51.106;3.684;2023-05-29T11:05:20;9.50;;;2.60;;
22774;SDS011;11554;51.106;3.684;2023-05-29T11:10:12;11.40;;;2.50;;
22774;SDS011;11554;51.106;3.684;2023-05-29T11:15:04;11.40;;;2.50;;
22774;SDS011;11554;51.106;3.684;2023-05-29T11:20:02;8.70;;;2.20;;
22774;SDS011;11554;51.106;3.684;2023-05-29T11:25:01;8.70;;;2.20;;
22774;SDS011;11554;51.106;3.684;2023-05-29T11:30:00;11.50;;;2.50;;
22774;SDS011;11554;51.106;3.684;2023-05-29T11:35:07;11.50;;;2.50;;
22774;SDS011;11554;51.106;3.684;2023-05-29T11:40:03;6.80;;;2.40;;
22774;SDS011;11554;51.106;3.684;2023-05-29T11:45:09;6.80;;;2.40;;
22774;SDS011;11554;51.106;3.684;2023-05-29T11:50:00;12.00;;;2.60;;
22774;SDS011;11554;51.106;3.684;2023-05-29T11:55:05;12.00;;;2.60;;
22774;SDS011;11554;51.106;3.684;2023-05-29T12:00:00;10.20;;;2.70;;
22774;SDS011;11554;51.106;3.684;2023-05-29T12:05:00;10.20;;;2.70;;
22774;SDS011;11554;51.106;3.684;2023-05-29T12:10:09;10.30;;;2.50;;
22774;SDS011;11554;51.106;3.684;2023-05-29T12:15:00;10.30;;;2.50;;
22774;SDS011;11554;51.106;3.684;2023-05-29T12:20:00;10.50;;;2.80;;
22774;SDS011;11554;51.106;3.684;2023-05-29T12:25:03;10.50;;;2.80;;
22774;SDS011;11554;51.106;3.684;2023-05-29T12:30:00;8.80;;;2.60;;
22774;SDS011;11554;51.106;3.684;2023-05-29T12:35:00;8.80;;;2.60;;
22774;SDS011;11554;51.106;3.684;2023-05-29T12:40:11;9.90;;;2.90;;
22774;SDS011;11554;51.106;3.684;2023-05-29T12:45:01;9.90;;;2.90;;
22774;SDS011;11554;51.106;3.684;2023-05-29T12:50:04;8.40;;;2.40;;
22774;SDS011;11554;51.106;3.684;2023-05-29T12:55:00;8.40;;;2.40;;
22774;SDS011;11554;51.106;3.684;2023-05-29T13:00:00;9.80;;;2.80;;
22774;SDS011;11554;51.106;3.684;2023-05-29T13:05:00;9.80;;;2.80;;
22774;SDS011;11554;51.106;3.684;2023-05-29T13:10:00;7.30;;;2.80;;
22774;SDS011;11554;51.106;3.684;2023-05-29T13:15:00;7.30;;;2.80;;
22774;SDS011;11554;51.106;3.684;2023-05-29T13:20:00;8.20;;;2.60;;
22774;SDS011;11554;51.106;3.684;2023-05-29T13:25:00;8.20;;;2.60;;
22774;SDS011;11554;51.106;3.684;2023-05-29T13:30:01;11.00;;;2.80;;
22774;SDS011;11554;51.106;3.684;2023-05-29T13:40:00;12.50;;;2.80;;
22774;SDS011;11554;51.106;3.684;2023-05-29T13:45:00;12.50;;;2.80;;
22774;SDS011;11554;51.106;3.684;2023-05-29T13:50:00;7.80;;;2.50;;
22774;SDS011;11554;51.106;3.684;2023-05-29T13:55:00;7.80;;;2.50;;
22774;SDS011;11554;51.106;3.684;2023-05-29T14:00:00;8.50;;;2.70;;
22774;SDS011;11554;51.106;3.684;2023-05-29T14:05:00;8.50;;;2.70;;
22774;SDS011;11554;51.106;3.684;2023-05-29T14:10:00;8.70;;;2.20;;
22774;SDS011;11554;51.106;3.684;2023-05-29T14:15:00;8.70;;;2.20;;
22774;SDS011;11554;51.106;3.684;2023-05-29T14:20:00;9.30;;;2.30;;
22774;SDS011;11554;51.106;3.684;2023-05-29T14:25:01;9.30;;;2.30;;
22774;SDS011;11554;51.106;3.684;2023-05-29T14:30:00;9.70;;;2.70;;
22774;SDS011;11554;51.106;3.684;2023-05-29T14:35:00;9.70;;;2.70;;
22774;SDS011;11554;51.106;3.684;2023-05-29T14:40:00;8.90;;;2.20;;
22774;SDS011;11554;51.106;3.684;2023-05-29T14:45:00;8.90;;;2.20;;
22774;SDS011;11554;51.106;3.684;2023-05-29T14:50:00;10.00;;;2.80;;
22774;SDS011;11554;51.106;3.684;2023-05-29T14:55:01;10.00;;;2.80;;
22774;SDS011;11554;51.106;3.684;2023-05-29T15:00:00;8.70;;;2.90;;
22774;SDS011;11554;51.106;3.684;2023-05-29T15:05:00;8.70;;;2.90;;
22774;SDS011;11554;51.106;3.684;2023-05-29T15:10:00;10.60;;;2.80;;
22774;SDS011;11554;51.106;3.684;2023-05-29T15:15:02;10.60;;;2.80;;
22774;SDS011;11554;51.106;3.684;2023-05-29T15:20:00;10.10;;;2.80;;
22774;SDS011;11554;51.106;3.684;2023-05-29T15:25:00;10.10;;;2.80;;
22774;SDS011;11554;51.106;3.684;2023-05-29T15:30:08;10.60;;;3.20;;
22774;SDS011;11554;51.106;3.684;2023-05-29T15:35:00;10.60;;;3.20;;
22774;SDS011;11554;51.106;3.684;2023-05-29T15:40:01;11.50;;;3.20;;
22774;SDS011;11554;51.106;3.684;2023-05-29T15:45:02;11.50;;;3.20;;
22774;SDS011;11554;51.106;3.684;2023-05-29T15:50:00;11.30;;;3.40;;
22774;SDS011;11554;51.106;3.684;2023-05-29T15:55:00;11.30;;;3.40;;
22774;SDS011;11554;51.106;3.684;2023-05-29T16:00:00;12.40;;;3.60;;
22774;SDS011;11554;51.106;3.684;2023-05-29T16:05:00;12.40;;;3.60;;
22774;SDS011;11554;51.106;3.684;2023-05-29T16:10:00;11.30;;;3.10;;
22774;SDS011;11554;51.106;3.684;2023-05-29T16:15:00;11.30;;;3.10;;
22774;SDS011;11554;51.106;3.684;2023-05-29T16:20:00;14.30;;;4.10;;
22774;SDS011;11554;51.106;3.684;2023-05-29T16:25:00;14.30;;;4.10;;
22774;SDS011;11554;51.106;3.684;2023-05-29T16:30:00;11.80;;;3.30;;
22774;SDS011;11554;51.106;3.684;2023-05-29T16:35:00;11.80;;;3.30;;
22774;SDS011;11554;51.106;3.684;2023-05-29T16:40:00;15.00;;;3.90;;
22774;SDS011;11554;51.106;3.684;2023-05-29T16:45:00;15.00;;;3.90;;
22774;SDS011;11554;51.106;3.684;2023-05-29T16:50:00;14.20;;;4.00;;
22774;SDS011;11554;51.106;3.684;2023-05-29T16:55:00;14.20;;;4.00;;
22774;SDS011;11554;51.106;3.684;2023-05-29T17:00:00;13.70;;;3.40;;
22774;SDS011;11554;51.106;3.684;2023-05-29T17:05:00;13.70;;;3.40;;
22774;SDS011;11554;51.106;3.684;2023-05-29T17:10:00;13.90;;;3.50;;
22774;SDS011;11554;51.106;3.684;2023-05-29T17:15:00;13.90;;;3.50;;
22774;SDS011;11554;51.106;3.684;2023-05-29T17:20:00;13.00;;;3.20;;
22774;SDS011;11554;51.106;3.684;2023-05-29T17:25:00;13.00;;;3.20;;
22774;SDS011;11554;51.106;3.684;2023-05-29T17:30:00;13.00;;;3.30;;
22774;SDS011;11554;51.106;3.684;2023-05-29T17:35:00;13.00;;;3.30;;
22774;SDS011;11554;51.106;3.684;2023-05-29T17:40:00;13.20;;;3.40;;
22774;SDS011;11554;51.106;3.684;2023-05-29T17:45:00;13.20;;;3.40;;
22774;SDS011;11554;51.106;3.684;2023-05-29T17:50:00;15.80;;;3.70;;
22774;SDS011;11554;51.106;3.684;2023-05-29T17:55:00;15.80;;;3.70;;
22774;SDS011;11554;51.106;3.684;2023-05-29T18:00:00;13.80;;;3.40;;
22774;SDS011;11554;51.106;3.684;2023-05-29T18:05:00;13.80;;;3.40;;
22774;SDS011;11554;51.106;3.684;2023-05-29T18:10:00;10.80;;;2.90;;
22774;SDS011;11554;51.106;3.684;2023-05-29T18:15:00;10.80;;;2.90;;
22774;SDS011;11554;51.106;3.684;2023-05-29T18:20:00;16.30;;;3.60;;
22774;SDS011;11554;51.106;3.684;2023-05-29T18:25:00;16.30;;;3.60;;
22774;SDS011;11554;51.106;3.684;2023-05-29T18:30:00;13.10;;;3.40;;
22774;SDS011;11554;51.106;3.684;2023-05-29T18:35:00;13.10;;;3.40;;
22774;SDS011;11554;51.106;3.684;2023-05-29T18:40:00;13.00;;;3.30;;
22774;SDS011;11554;51.106;3.684;2023-05-29T18:45:00;13.00;;;3.30;;
22774;SDS011;11554;51.106;3.684;2023-05-29T18:50:00;15.90;;;3.30;;
22774;SDS011;11554;51.106;3.684;2023-05-29T18:55:00;15.90;;;3.30;;
22774;SDS011;11554;51.106;3.684;2023-05-29T19:00:00;16.30;;;3.90;;
22774;SDS011;11554;51.106;3.684;2023-05-29T19:05:00;16.30;;;3.90;;
22774;SDS011;11554;51.106;3.684;2023-05-29T19:10:00;18.80;;;4.10;;
22774;SDS011;11554;51.106;3.684;2023-05-29T19:15:00;18.80;;;4.10;;
22774;SDS011;11554;51.106;3.684;2023-05-29T19:20:00;16.60;;;3.40;;
22774;SDS011;11554;51.106;3.684;2023-05-29T19:25:01;16.60;;;3.40;;
22774;SDS011;11554;51.106;3.684;2023-05-29T19:30:00;17.40;;;3.40;;
22774;SDS011;11554;51.106;3.684;2023-05-29T19:35:00;17.40;;;3.40;;
22774;SDS011;11554;51.106;3.684;2023-05-29T19:40:00;21.60;;;3.80;;
22774;SDS011;11554;51.106;3.684;2023-05-29T19:45:00;21.60;;;3.80;;
22774;SDS011;11554;51.106;3.684;2023-05-29T19:50:00;15.00;;;3.60;;
22774;SDS011;11554;51.106;3.684;2023-05-29T19:55:00;15.00;;;3.60;;
22774;SDS011;11554;51.106;3.684;2023-05-29T20:00:00;17.60;;;3.70;;
22774;SDS011;11554;51.106;3.684;2023-05-29T20:05:00;17.60;;;3.70;;
22774;SDS011;11554;51.106;3.684;2023-05-29T20:10:00;17.00;;;4.00;;
22774;SDS011;11554;51.106;3.684;2023-05-29T20:15:00;17.00;;;4.00;;
22774;SDS011;11554;51.106;3.684;2023-05-29T20:20:00;15.40;;;3.40;;
22774;SDS011;11554;51.106;3.684;2023-05-29T20:25:00;15.40;;;3.40;;
22774;SDS011;11554;51.106;3.684;2023-05-29T20:30:00;18.30;;;3.90;;
22774;SDS011;11554;51.106;3.684;2023-05-29T20:35:00;18.30;;;3.90;;
22774;SDS011;11554;51.106;3.684;2023-05-29T20:40:00;13.80;;;3.40;;
22774;SDS011;11554;51.106;3.684;2023-05-29T20:45:00;13.80;;;3.40;;
22774;SDS011;11554;51.106;3.684;2023-05-29T20:50:00;14.20;;;3.20;;
22774;SDS011;11554;51.106;3.684;2023-05-29T20:55:00;14.20;;;3.20;;
22774;SDS011;11554;51.106;3.684;2023-05-29T21:00:00;12.70;;;3.30;;
22774;SDS011;11554;51.106;3.684;2023-05-29T21:05:00;12.70;;;3.30;;
22774;SDS011;11554;51.106;3.684;2023-05-29T21:10:00;11.00;;;2.90;;
22774;SDS011;11554;51.106;3.684;2023-05-29T21:15:00;11.00;;;2.90;;
22774;SDS011;11554;51.106;3.684;2023-05-29T21:20:00;11.00;;;2.90;;
22774;SDS011;11554;51.106;3.684;2023-05-29T21:25:00;11.00;;;2.90;;
22774;SDS011;11554;51.106;3.684;2023-05-29T21:30:00;14.60;;;2.70;;
22774;SDS011;11554;51.106;3.684;2023-05-29T21:35:00;14.60;;;2.70;;
22774;SDS011;11554;51.106;3.684;2023-05-29T21:40:00;10.80;;;2.20;;
22774;SDS011;11554;51.106;3.684;2023-05-29T21:45:00;10.80;;;2.20;;
22774;SDS011;11554;51.106;3.684;2023-05-29T21:50:00;12.00;;;2.80;;
22774;SDS011;11554;51.106;3.684;2023-05-29T21:55:00;12.00;;;2.80;;
22774;SDS011;11554;51.106;3.684;2023-05-29T22:00:00;9.50;;;2.50;;
22774;SDS011;11554;51.106;3.684;2023-05-29T22:05:00;9.50;;;2.50;;
22774;SDS011;11554;51.106;3.684;2023-05-29T22:10:00;13.10;;;2.70;;
22774;SDS011;11554;51.106;3.684;2023-05-29T22:15:00;13.10;;;2.70;;
22774;SDS011;11554;51.106;3.684;2023-05-29T22:20:00;12.60;;;2.50;;
22774;SDS011;11554;51.106;3.684;2023-05-29T22:25:00;12.60;;;2.50;;
22774;SDS011;11554;51.106;3.684;2023-05-29T22:30:00;13.60;;;2.80;;
22774;SDS011;11554;51.106;3.684;2023-05-29T22:35:00;13.60;;;2.80;;
22774;SDS011;11554;51.106;3.684;2023-05-29T22:40:00;14.20;;;3.20;;
22774;SDS011;11554;51.106;3.684;2023-05-29T22:45:00;14.20;;;3.20;;
22774;SDS011;11554;51.106;3.684;2023-05-29T22:50:00;13.30;;;3.10;;
22774;SDS011;11554;51.106;3.684;2023-05-29T22:55:00;13.30;;;3.10;;
22774;SDS011;11554;51.106;3.684;2023-05-29T23:00:00;11.10;;;2.50;;
22774;SDS011;11554;51.106;3.684;2023-05-29T23:05:00;11.10;;;2.50;;
22774;SDS011;11554;51.106;3.684;2023-05-29T23:10:00;16.40;;;3.20;;
22774;SDS011;11554;51.106;3.684;2023-05-29T23:15:00;16.40;;;3.20;;
22774;SDS011;11554;51.106;3.684;2023-05-29T23:20:00;14.50;;;3.00;;
22774;SDS011;11554;51.106;3.684;2023-05-29T23:25:00;14.50;;;3.00;;
22774;SDS011;11554;51.106;3.684;2023-05-29T23:30:00;14.40;;;2.60;;
22774;SDS011;11554;51.106;3.684;2023-05-29T23:35:00;14.40;;;2.60;;
22774;SDS011;11554;51.106;3.684;2023-05-29T23:40:00;12.60;;;2.60;;
22774;SDS011;11554;51.106;3.684;2023-05-29T23:45:00;12.60;;;2.60;;
22774;SDS011;11554;51.106;3.684;2023-05-29T23:50:00;11.10;;;2.80;;
22774;SDS011;11554;51.106;3.684;2023-05-29T23:55:00;11.10;;;2.80;;
